Aviation Digital Data Service (ADDS)

Output produced by METARs form (2050 UTC 01 December 2021)
found at http://www.aviationweather.gov/metar/data/
 
METAR text: RJSC 011000Z 01006KT 310V040 9999 -SHRA FEW010 SCT020 BKN030 05/03 Q1002
Conditions at: RJSC (YAMAGATA(CIV/JGS, JP) observed 1000 UTC 01 December 2021
Temperature: 5.0°C (41°F)
Dewpoint: 3.0°C (37°F) [RH = 87%]
Pressure (altimeter): 29.59 inches Hg (1002.0 mb)
Winds: from the N (10 degrees) at 7 MPH (6 knots; 3.1 m/s)
Visibility: 6 or more miles (10+ km)
Ceiling: 3000 feet AGL
Clouds: few clouds at 1000 feet AGL
scattered clouds at 2000 feet AGL
broken clouds at 3000 feet AGL
Weather: -SHRA  (light rain showers)

METAR text: RJSC 010900Z 33005KT 9999 -SHRA FEW010 SCT020 BKN030 06/04 Q1001
Conditions at: RJSC (YAMAGATA(CIV/JGS, JP) observed 0900 UTC 01 December 2021
Temperature: 6.0°C (43°F)
Dewpoint: 4.0°C (39°F) [RH = 87%]
Pressure (altimeter): 29.56 inches Hg (1001.0 mb)
Winds: from the NNW (330 degrees) at 6 MPH (5 knots; 2.6 m/s)
Visibility: 6 or more miles (10+ km)
Ceiling: 3000 feet AGL
Clouds: few clouds at 1000 feet AGL
scattered clouds at 2000 feet AGL
broken clouds at 3000 feet AGL
Weather: -SHRA  (light rain showers)

METAR text: RJSC 010800Z 28004KT 250V310 9999 -SHRA FEW010 SCT020 BKN030 07/04 Q1000
Conditions at: RJSC (YAMAGATA(CIV/JGS, JP) observed 0800 UTC 01 December 2021
Temperature: 7.0°C (45°F)
Dewpoint: 4.0°C (39°F) [RH = 81%]
Pressure (altimeter): 29.53 inches Hg (1000.0 mb)
Winds: from the W (280 degrees) at 5 MPH (4 knots; 2.1 m/s)
Visibility: 6 or more miles (10+ km)
Ceiling: 3000 feet AGL
Clouds: few clouds at 1000 feet AGL
scattered clouds at 2000 feet AGL
broken clouds at 3000 feet AGL
Weather: -SHRA  (light rain showers)

METAR text: RJSC 010700Z 34006KT 280V040 9999 -SHRA FEW010 SCT025 BKN035 07/05 Q0999
Conditions at: RJSC (YAMAGATA(CIV/JGS, JP) observed 0700 UTC 01 December 2021
Temperature: 7.0°C (45°F)
Dewpoint: 5.0°C (41°F) [RH = 87%]
Pressure (altimeter): 29.50 inches Hg (999.0 mb)
Winds: from the NNW (340 degrees) at 7 MPH (6 knots; 3.1 m/s)
Visibility: 6 or more miles (10+ km)
Ceiling: 3500 feet AGL
Clouds: few clouds at 1000 feet AGL
scattered clouds at 2500 feet AGL
broken clouds at 3500 feet AGL
Weather: -SHRA  (light rain showers)

METAR text: RJSC 010600Z 25006KT 220V280 9999 -SHRA FEW010 SCT030 BKN040 08/06 Q0998
Conditions at: RJSC (YAMAGATA(CIV/JGS, JP) observed 0600 UTC 01 December 2021
Temperature: 8.0°C (46°F)
Dewpoint: 6.0°C (43°F) [RH = 87%]
Pressure (altimeter): 29.47 inches Hg (998.0 mb)
Winds: from the WSW (250 degrees) at 7 MPH (6 knots; 3.1 m/s)
Visibility: 6 or more miles (10+ km)
Ceiling: 4000 feet AGL
Clouds: few clouds at 1000 feet AGL
scattered clouds at 3000 feet AGL
broken clouds at 4000 feet AGL
Weather: -SHRA  (light rain showers)

METAR text: RJSC 010500Z 27008KT 240V300 9999 -SHRA FEW010 SCT030 BKN040 11/04 Q0997
Conditions at: RJSC (YAMAGATA(CIV/JGS, JP) observed 0500 UTC 01 December 2021
Temperature: 11.0°C (52°F)
Dewpoint: 4.0°C (39°F) [RH = 62%]
Pressure (altimeter): 29.44 inches Hg (997.0 mb)
Winds: from the W (270 degrees) at 9 MPH (8 knots; 4.1 m/s)
Visibility: 6 or more miles (10+ km)
Ceiling: 4000 feet AGL
Clouds: few clouds at 1000 feet AGL
scattered clouds at 3000 feet AGL
broken clouds at 4000 feet AGL
Weather: -SHRA  (light rain showers)

METAR text: RJSC 010400Z 25013G25KT 210V290 9999 FEW020 SCT030 BKN050 11/03 Q0996
Conditions at: RJSC (YAMAGATA(CIV/JGS, JP) observed 0400 UTC 01 December 2021
Temperature: 11.0°C (52°F)
Dewpoint: 3.0°C (37°F) [RH = 58%]
Pressure (altimeter): 29.41 inches Hg (996.0 mb)
Winds: from the WSW (250 degrees) at 15 MPH (13 knots; 6.7 m/s)
gusting to 29 MPH (25 knots; 12.9 m/s)
Visibility: 6 or more miles (10+ km)
Ceiling: 5000 feet AGL
Clouds: few clouds at 2000 feet AGL
scattered clouds at 3000 feet AGL
broken clouds at 5000 feet AGL
Weather: no significant weather observed at this time

METAR text: RJSC 010300Z 24013G25KT 210V310 9999 FEW010 SCT030 BKN050 12/05 Q0997
Conditions at: RJSC (YAMAGATA(CIV/JGS, JP) observed 0300 UTC 01 December 2021
Temperature: 12.0°C (54°F)
Dewpoint: 5.0°C (41°F) [RH = 62%]
Pressure (altimeter): 29.44 inches Hg (997.0 mb)
Winds: from the WSW (240 degrees) at 15 MPH (13 knots; 6.7 m/s)
gusting to 29 MPH (25 knots; 12.9 m/s)
Visibility: 6 or more miles (10+ km)
Ceiling: 5000 feet AGL
Clouds: few clouds at 1000 feet AGL
scattered clouds at 3000 feet AGL
broken clouds at 5000 feet AGL
Weather: no significant weather observed at this time

METAR text: RJSC 010200Z 27009KT 240V310 9999 FEW010 SCT030 BKN050 12/05 Q0997
Conditions at: RJSC (YAMAGATA(CIV/JGS, JP) observed 0200 UTC 01 December 2021
Temperature: 12.0°C (54°F)
Dewpoint: 5.0°C (41°F) [RH = 62%]
Pressure (altimeter): 29.44 inches Hg (997.0 mb)
Winds: from the W (270 degrees) at 10 MPH (9 knots; 4.6 m/s)
Visibility: 6 or more miles (10+ km)
Ceiling: 5000 feet AGL
Clouds: few clouds at 1000 feet AGL
scattered clouds at 3000 feet AGL
broken clouds at 5000 feet AGL
Weather: no significant weather observed at this time

METAR text: RJSC 010100Z VRB05KT 9999 FEW002 SCT025 BKN050 12/09 Q0998
Conditions at: RJSC (YAMAGATA(CIV/JGS, JP) observed 0100 UTC 01 December 2021
Temperature: 12.0°C (54°F)
Dewpoint: 9.0°C (48°F) [RH = 82%]
Pressure (altimeter): 29.47 inches Hg (998.0 mb)
Winds: variable direction winds at 6 MPH (5 knots; 2.6 m/s)
Visibility: 6 or more miles (10+ km)
Ceiling: 5000 feet AGL
Clouds: few clouds at 200 feet AGL
scattered clouds at 2500 feet AGL
broken clouds at 5000 feet AGL
Weather: no significant weather observed at this time

METAR text: RJSC 010030Z VRB03KT 9999 BCFG BR FEW002 SCT010 BKN040 10/10 Q0997 RMK 1ST002 3ST010 6CU040 A2947 4000NE-SE
Conditions at: RJSC (YAMAGATA(CIV/JGS, JP) observed 0030 UTC 01 December 2021
Temperature: 10.0°C (50°F)
Dewpoint: 10.0°C (50°F) [RH = 100%]
Pressure (altimeter): 29.44 inches Hg (997.0 mb)
Winds: variable direction winds at 3 MPH (3 knots; 1.5 m/s)
Visibility: 6 or more miles (10+ km)
Ceiling: 4000 feet AGL
Clouds: few clouds at 200 feet AGL
scattered clouds at 1000 feet AGL
broken clouds at 4000 feet AGL
Weather: BCFG BR  (patches of fog, mist)

METAR text: RJSC 010015Z 24004KT 200V280 3000 BCFG BR FEW001 SCT008 BKN040 09/09 Q0997 RMK 1ST001 3ST008 5CU040 A2947
Conditions at: RJSC (YAMAGATA(CIV/JGS, JP) observed 0015 UTC 01 December 2021
Temperature: 9.0°C (48°F)
Dewpoint: 9.0°C (48°F) [RH = 100%]
Pressure (altimeter): 29.44 inches Hg (997.0 mb)
Winds: from the WSW (240 degrees) at 5 MPH (4 knots; 2.1 m/s)
Visibility: 1.86 miles (2.99 km)
Ceiling: 4000 feet AGL
Clouds: few clouds at 100 feet AGL
scattered clouds at 800 feet AGL
broken clouds at 4000 feet AGL
Weather: BCFG BR  (patches of fog, mist)

METAR text: RJSC 010000Z 19005KT 170V240 2000 R01/P2000N -SHRA BCFG BR FEW001 SCT008 BKN040 09/09 Q0998
Conditions at: RJSC (YAMAGATA(CIV/JGS, JP) observed 0000 UTC 01 December 2021
Temperature: 9.0°C (48°F)
Dewpoint: 9.0°C (48°F) [RH = 100%]
Pressure (altimeter): 29.47 inches Hg (998.0 mb)
Winds: from the S (190 degrees) at 6 MPH (5 knots; 2.6 m/s)
Visibility: 1.24 miles (2.00 km)
Ceiling: 4000 feet AGL
Clouds: few clouds at 100 feet AGL
scattered clouds at 800 feet AGL
broken clouds at 4000 feet AGL
Weather: -SHRA BCFG BR  (light rain showers, patches of fog, mist)

METAR text: RJSC 302340Z 20003KT 170V240 3000 R01/P2000N -SHRA BCFG BR FEW003 SCT010 BKN040 08/08 Q0997 RMK 1ST003 4ST010 5CU040 A2946 1500SE-SW
Conditions at: RJSC (YAMAGATA(CIV/JGS, JP) observed 2340 UTC 30 November 2021
Temperature: 8.0°C (46°F)
Dewpoint: 8.0°C (46°F) [RH = 100%]
Pressure (altimeter): 29.44 inches Hg (997.0 mb)
Winds: from the SSW (200 degrees) at 3 MPH (3 knots; 1.5 m/s)
Visibility: 1.86 miles (2.99 km)
Ceiling: 4000 feet AGL
Clouds: few clouds at 300 feet AGL
scattered clouds at 1000 feet AGL
broken clouds at 4000 feet AGL
Weather: -SHRA BCFG BR  (light rain showers, patches of fog, mist)

METAR text: RJSC 302327Z 25003KT 220V280 1500 R01/P2000N -SHRA BCFG BR FEW003 SCT010 BKN030 08/08 Q0997 RMK 1ST003 4ST010 5CU030 A2946 3000NE-SE
Conditions at: RJSC (YAMAGATA(CIV/JGS, JP) observed 2327 UTC 30 November 2021
Temperature: 8.0°C (46°F)
Dewpoint: 8.0°C (46°F) [RH = 100%]
Pressure (altimeter): 29.44 inches Hg (997.0 mb)
Winds: from the WSW (250 degrees) at 3 MPH (3 knots; 1.5 m/s)
Visibility: 0.93 miles (1.50 km)
Ceiling: 3000 feet AGL
Clouds: few clouds at 300 feet AGL
scattered clouds at 1000 feet AGL
broken clouds at 3000 feet AGL
Weather: -SHRA BCFG BR  (light rain showers, patches of fog, mist)

METAR text: RJSC 302308Z VRB01KT 7000 SHRA FEW003 SCT015 BKN045 09/09 Q0997 RMK 1ST003 3CU015 5CU045 A2946
Conditions at: RJSC (YAMAGATA(CIV/JGS, JP) observed 2308 UTC 30 November 2021
Temperature: 9.0°C (48°F)
Dewpoint: 9.0°C (48°F) [RH = 100%]
Pressure (altimeter): 29.44 inches Hg (997.0 mb)
Winds: variable direction winds at 1 MPH (1 knots; 0.5 m/s)
Visibility: 4 miles ( 7 km)
Ceiling: 4500 feet AGL
Clouds: few clouds at 300 feet AGL
scattered clouds at 1500 feet AGL
broken clouds at 4500 feet AGL
Weather: SHRA  (rain showers)

METAR text: RJSC 302300Z VRB01KT 8000 -SHRA FEW003 SCT015 BKN045 09/09 Q0997
Conditions at: RJSC (YAMAGATA(CIV/JGS, JP) observed 2300 UTC 30 November 2021
Temperature: 9.0°C (48°F)
Dewpoint: 9.0°C (48°F) [RH = 100%]
Pressure (altimeter): 29.44 inches Hg (997.0 mb)
Winds: variable direction winds at 1 MPH (1 knots; 0.5 m/s)
Visibility: 5 miles ( 8 km)
Ceiling: 4500 feet AGL
Clouds: few clouds at 300 feet AGL
scattered clouds at 1500 feet AGL
broken clouds at 4500 feet AGL
Weather: -SHRA  (light rain showers)

METAR text: RJSC 302240Z 10005KT 7000 SHRA FEW003 SCT020 BKN045 09/09 Q0997 RMK 1ST003 3CU020 6CU045 A2946
Conditions at: RJSC (YAMAGATA(CIV/JGS, JP) observed 2240 UTC 30 November 2021
Temperature: 9.0°C (48°F)
Dewpoint: 9.0°C (48°F) [RH = 100%]
Pressure (altimeter): 29.44 inches Hg (997.0 mb)
Winds: from the E (100 degrees) at 6 MPH (5 knots; 2.6 m/s)
Visibility: 4 miles ( 7 km)
Ceiling: 4500 feet AGL
Clouds: few clouds at 300 feet AGL
scattered clouds at 2000 feet AGL
broken clouds at 4500 feet AGL
Weather: SHRA  (rain showers)

METAR text: RJSC 301000Z VRB02KT CAVOK 04/02 Q1014
Conditions at: RJSC (YAMAGATA(CIV/JGS, JP) observed 1000 UTC 30 November 2021
Temperature: 4.0°C (39°F)
Dewpoint: 2.0°C (36°F) [RH = 87%]
Pressure (altimeter): 29.94 inches Hg (1014.0 mb)
Winds: variable direction winds at 2 MPH (2 knots; 1.0 m/s)
Visibility: 6 or more miles (10+ km)
Ceiling: ceiling and visibility are OK
Clouds: unknown
Weather: no significant weather observed at this time

METAR text: RJSC 300900Z VRB02KT CAVOK 04/02 Q1015
Conditions at: RJSC (YAMAGATA(CIV/JGS, JP) observed 0900 UTC 30 November 2021
Temperature: 4.0°C (39°F)
Dewpoint: 2.0°C (36°F) [RH = 87%]
Pressure (altimeter): 29.97 inches Hg (1015.0 mb)
Winds: variable direction winds at 2 MPH (2 knots; 1.0 m/s)
Visibility: 6 or more miles (10+ km)
Ceiling: ceiling and visibility are OK
Clouds: unknown
Weather: no significant weather observed at this time